createdAt,value
2023-01-26T00:02:34.797Z,12.98
2023-01-26T00:05:20.259Z,15.25
2023-01-26T00:08:06.227Z,12.25
2023-01-26T00:10:51.729Z,12.00
2023-01-26T00:13:41.621Z,17.83
2023-01-26T00:16:28.516Z,16.08
2023-01-26T00:19:14.174Z,17.63
2023-01-26T00:21:59.789Z,18.80
2023-01-26T00:24:45.777Z,13.30
2023-01-26T00:27:33.648Z,17.40
2023-01-26T00:30:20.666Z,12.73
2023-01-26T00:33:06.572Z,14.55
2023-01-26T00:35:55.474Z,12.63
2023-01-26T00:38:41.755Z,17.45
2023-01-26T00:41:45.551Z,19.70
2023-01-26T00:44:31.155Z,16.67
2023-01-26T00:47:19.001Z,11.20
2023-01-26T00:50:05.487Z,18.00
2023-01-26T00:52:51.350Z,10.60
2023-01-26T00:55:37.226Z,18.33
2023-01-26T00:58:23.631Z,16.98
2023-01-26T01:01:09.110Z,14.80
2023-01-26T01:03:54.820Z,11.77
2023-01-26T01:06:40.448Z,16.92
2023-01-26T01:09:26.284Z,18.17
2023-01-26T01:12:11.821Z,22.27
2023-01-26T01:14:57.473Z,16.00
2023-01-26T01:17:42.732Z,19.45
2023-01-26T01:20:29.333Z,16.40
2023-01-26T01:23:14.905Z,18.42
2023-01-26T01:26:01.366Z,21.83
2023-01-26T01:28:46.580Z,17.02
2023-01-26T01:31:32.194Z,19.13
2023-01-26T01:34:17.921Z,16.15
2023-01-26T01:37:03.779Z,15.40
2023-01-26T01:39:49.530Z,23.40
2023-01-26T01:42:35.120Z,18.20
2023-01-26T01:45:26.832Z,17.20
2023-01-26T01:48:35.843Z,20.13
2023-01-26T01:51:33.135Z,17.02
2023-01-26T01:54:26.723Z,16.17
2023-01-26T01:57:18.253Z,19.05
2023-01-26T02:00:09.430Z,26.92
2023-01-26T02:03:19.268Z,16.33
2023-01-26T02:06:15.888Z,12.38
2023-01-26T02:09:02.280Z,21.67
2023-01-26T02:11:48.718Z,23.92
2023-01-26T02:14:34.084Z,14.48
2023-01-26T02:17:20.015Z,18.40
2023-01-26T02:20:14.722Z,19.33
2023-01-26T02:23:18.096Z,20.05
2023-01-26T02:26:22.219Z,16.85
2023-01-26T02:29:10.001Z,21.45
2023-01-26T02:31:55.764Z,17.25
2023-01-26T02:34:41.350Z,27.65
2023-01-26T02:37:26.983Z,23.70
2023-01-26T02:40:47.471Z,20.98
2023-01-26T02:43:33.293Z,23.17
2023-01-26T02:46:19.078Z,15.80
2023-01-26T02:49:23.439Z,20.73
2023-01-26T02:52:09.557Z,17.50
2023-01-26T02:55:14.366Z,17.05
2023-01-26T02:58:02.694Z,21.25
2023-01-26T03:00:48.491Z,14.32
2023-01-26T03:03:42.777Z,18.05
2023-01-26T03:06:28.644Z,18.35
2023-01-26T03:09:14.284Z,23.30
2023-01-26T03:11:59.762Z,18.23
2023-01-26T03:14:45.275Z,25.45
2023-01-26T03:17:30.952Z,20.20
2023-01-26T03:20:35.086Z,21.80
2023-01-26T03:23:39.270Z,19.27
2023-01-26T03:26:43.194Z,19.58
2023-01-26T03:29:29.213Z,21.50
2023-01-26T03:32:21.644Z,26.27
2023-01-26T03:35:10.144Z,20.80
2023-01-26T03:37:55.617Z,21.23
2023-01-26T03:40:59.579Z,16.67
2023-01-26T03:47:07.493Z,21.52
2023-01-26T03:53:46.890Z,20.05
2023-01-26T03:56:33.244Z,19.42
2023-01-26T03:59:25.369Z,18.98
2023-01-26T04:02:31.616Z,21.52
2023-01-26T04:05:35.318Z,18.58
2023-01-26T04:08:21.631Z,18.77
2023-01-26T04:11:07.509Z,20.05
2023-01-26T04:14:11.813Z,21.70
2023-01-26T04:17:16.756Z,21.65
2023-01-26T04:20:20.748Z,15.75
2023-01-26T04:23:06.093Z,22.98
2023-01-26T04:25:51.694Z,16.00
2023-01-26T04:28:38.333Z,21.00
2023-01-26T04:31:24.228Z,23.00
2023-01-26T04:34:15.232Z,20.27
2023-01-26T04:37:00.697Z,21.40
2023-01-26T04:39:46.473Z,20.17
2023-01-26T04:42:31.970Z,18.85
2023-01-26T04:45:17.562Z,24.05
2023-01-26T04:48:03.189Z,21.70
2023-01-26T04:50:54.592Z,18.58
2023-01-26T04:53:40.152Z,19.83
2023-01-26T04:56:27.921Z,26.52
2023-01-26T04:59:14.500Z,16.77
2023-01-26T05:01:59.648Z,19.02
2023-01-26T05:04:45.181Z,17.45
2023-01-26T05:07:30.458Z,15.30
2023-01-26T05:10:18.291Z,18.38
2023-01-26T05:13:04.042Z,21.40
2023-01-26T05:15:49.523Z,14.68
2023-01-26T05:18:35.065Z,16.88
2023-01-26T05:21:22.495Z,17.92
2023-01-26T05:24:08.621Z,26.75
2023-01-26T05:27:13.983Z,25.85
2023-01-26T05:30:02.145Z,20.80
2023-01-26T05:32:47.729Z,24.02
2023-01-26T05:35:33.833Z,29.92
2023-01-26T05:38:19.711Z,19.67
2023-01-26T05:41:07.140Z,23.35
2023-01-26T05:43:52.368Z,19.42
2023-01-26T05:46:37.846Z,21.38
2023-01-26T05:49:23.382Z,21.55
2023-01-26T05:52:13.254Z,19.15
2023-01-26T05:54:58.880Z,20.95
2023-01-26T05:57:44.241Z,12.90
2023-01-26T06:00:29.652Z,18.52
2023-01-26T06:03:14.997Z,21.23
2023-01-26T06:06:00.642Z,17.05
2023-01-26T06:08:46.157Z,24.08
2023-01-26T06:11:34.534Z,17.50
2023-01-26T06:14:20.227Z,26.10
2023-01-26T06:17:05.918Z,20.90
2023-01-26T06:19:52.499Z,16.77
2023-01-26T06:22:38.078Z,26.75
2023-01-26T06:25:23.637Z,14.95
2023-01-26T06:28:09.235Z,17.90
2023-01-26T06:31:03.419Z,16.50
2023-01-26T06:33:49.896Z,17.45
2023-01-26T06:36:35.439Z,26.42
2023-01-26T06:39:21.152Z,16.38
2023-01-26T06:42:08.726Z,22.02
2023-01-26T06:44:54.311Z,19.27
2023-01-26T06:47:46.170Z,25.05
2023-01-26T06:50:35.525Z,17.77
2023-01-26T06:53:35.118Z,19.65
2023-01-26T06:56:21.100Z,18.48
2023-01-26T06:59:06.751Z,19.30
2023-01-26T07:01:52.277Z,12.82
2023-01-26T07:04:37.758Z,15.48
2023-01-26T07:07:23.416Z,20.63
2023-01-26T07:10:10.312Z,21.48
2023-01-26T07:12:56.109Z,20.25
2023-01-26T07:15:41.508Z,19.90
2023-01-26T07:18:27.034Z,21.48
2023-01-26T07:21:15.222Z,24.38
2023-01-26T07:24:00.807Z,18.85
2023-01-26T07:26:46.210Z,23.70
2023-01-26T07:29:31.861Z,21.65
2023-01-26T07:32:17.682Z,18.08
2023-01-26T07:35:03.038Z,16.55
2023-01-26T07:37:48.676Z,25.75
2023-01-26T07:40:34.467Z,16.70
2023-01-26T07:43:19.786Z,19.60
2023-01-26T07:46:07.505Z,19.75
2023-01-26T07:48:53.186Z,19.67
2023-01-26T07:51:39.699Z,22.85
2023-01-26T07:54:25.190Z,14.60
2023-01-26T07:57:11.944Z,18.88
2023-01-26T07:59:57.654Z,27.05
2023-01-26T08:02:43.470Z,16.75
2023-01-26T08:05:28.984Z,16.15
2023-01-26T08:08:14.647Z,16.60
2023-01-26T08:11:01.458Z,18.75
2023-01-26T08:13:46.933Z,15.85
2023-01-26T08:16:32.498Z,18.40
2023-01-26T08:19:18.720Z,15.57
2023-01-26T08:22:03.977Z,12.30
2023-01-26T08:24:49.577Z,23.70
2023-01-26T08:27:34.925Z,23.02
2023-01-26T08:30:20.519Z,14.65
2023-01-26T08:33:06.683Z,19.35
2023-01-26T08:35:52.446Z,16.63
2023-01-26T08:38:38.046Z,19.30
2023-01-26T08:41:23.469Z,20.38
2023-01-26T08:44:10.486Z,23.13
2023-01-26T08:46:56.894Z,22.23
2023-01-26T08:49:42.420Z,17.58
2023-01-26T08:52:27.715Z,16.58
2023-01-26T08:55:13.504Z,27.13
2023-01-26T08:57:59.133Z,20.45
2023-01-26T09:00:44.695Z,19.58
2023-01-26T09:03:30.501Z,19.15
2023-01-26T09:06:16.127Z,15.07
2023-01-26T09:09:01.871Z,15.43
2023-01-26T09:11:47.475Z,20.27
2023-01-26T09:14:33.134Z,20.92
2023-01-26T09:17:18.662Z,19.60
2023-01-26T09:20:06.156Z,20.90
2023-01-26T09:22:54.819Z,22.95
2023-01-26T09:25:40.266Z,19.45
2023-01-26T09:28:25.812Z,19.42
2023-01-26T09:31:12.311Z,22.77
2023-01-26T09:33:57.690Z,19.02
2023-01-26T09:36:43.172Z,17.67
2023-01-26T09:39:29.105Z,20.70
2023-01-26T09:42:34.344Z,17.40
2023-01-26T09:45:28.883Z,19.20
2023-01-26T09:48:20.170Z,26.60
2023-01-26T09:51:23.255Z,24.58
2023-01-26T09:54:49.164Z,18.52
2023-01-26T09:58:07.808Z,22.70
2023-01-26T10:01:00.149Z,20.30
2023-01-26T10:04:12.535Z,21.65
2023-01-26T10:06:58.575Z,28.35
2023-01-26T10:09:49.638Z,24.25
2023-01-26T10:12:38.137Z,23.42
2023-01-26T10:15:39.662Z,22.25
2023-01-26T10:18:33.264Z,23.05
2023-01-26T10:21:22.838Z,22.52
2023-01-26T10:24:11.142Z,19.25
2023-01-26T10:26:58.335Z,23.30
2023-01-26T10:29:44.220Z,25.27
2023-01-26T10:32:32.065Z,27.67
2023-01-26T10:35:28.244Z,31.00
2023-01-26T10:38:39.147Z,26.00
2023-01-26T10:41:27.755Z,30.23
2023-01-26T10:44:18.543Z,25.70
2023-01-26T10:47:18.793Z,24.65
2023-01-26T10:50:25.447Z,20.13
2023-01-26T10:53:25.613Z,25.77
2023-01-26T10:56:17.173Z,23.75
2023-01-26T10:59:07.942Z,26.05
2023-01-26T11:02:16.806Z,24.60
2023-01-26T11:05:08.229Z,31.45
2023-01-26T11:07:58.831Z,23.23
2023-01-26T11:10:52.652Z,25.23
2023-01-26T11:13:37.966Z,27.55
2023-01-26T11:16:26.369Z,25.20
2023-01-26T11:19:32.431Z,27.67
2023-01-26T11:22:47.502Z,26.70
2023-01-26T11:25:41.338Z,31.25
2023-01-26T11:28:46.068Z,27.40
2023-01-26T11:31:53.242Z,24.20
2023-01-26T11:35:09.355Z,25.75
2023-01-26T11:38:16.578Z,25.05
2023-01-26T11:41:59.466Z,24.27
2023-01-26T11:45:09.679Z,22.30
2023-01-26T11:48:01.151Z,23.25
2023-01-26T11:51:15.006Z,20.48
2023-01-26T11:54:16.027Z,21.67
2023-01-26T11:57:23.541Z,21.75
2023-01-26T12:00:29.425Z,23.20
2023-01-26T12:03:33.290Z,20.27
2023-01-26T12:06:38.616Z,17.77
2023-01-26T12:09:42.785Z,21.33
2023-01-26T12:12:43.789Z,16.77
2023-01-26T12:15:45.044Z,21.05
2023-01-26T12:18:50.786Z,23.38
2023-01-26T12:21:44.085Z,20.35
2023-01-26T12:28:21.422Z,18.90
2023-01-26T12:31:13.611Z,19.95
2023-01-26T12:34:00.029Z,25.55
2023-01-26T12:37:14.505Z,23.38
2023-01-26T12:40:16.860Z,19.10
2023-01-26T12:43:44.430Z,19.77
2023-01-26T12:46:36.229Z,16.73
2023-01-26T12:49:30.985Z,20.42
2023-01-26T12:52:30.740Z,29.00
2023-01-26T12:55:43.096Z,15.45
2023-01-26T12:58:34.054Z,20.45
2023-01-26T13:01:23.714Z,25.50
2023-01-26T13:04:12.760Z,16.90
2023-01-26T13:07:33.874Z,21.83
2023-01-26T13:10:28.108Z,17.40
2023-01-26T13:13:27.014Z,20.65
2023-01-26T13:16:15.934Z,17.73
2023-01-26T13:19:35.285Z,18.58
2023-01-26T13:22:26.030Z,21.17
2023-01-26T13:25:28.246Z,23.38
2023-01-26T13:28:14.217Z,16.23
2023-01-26T13:31:06.462Z,21.20
2023-01-26T13:33:53.081Z,20.00
2023-01-26T13:36:48.635Z,17.40
2023-01-26T13:39:41.486Z,14.63
2023-01-26T13:42:44.143Z,20.48
2023-01-26T13:45:57.058Z,22.23
2023-01-26T13:48:45.442Z,22.30
2023-01-26T13:51:35.943Z,16.92
2023-01-26T13:54:24.247Z,21.52
2023-01-26T13:57:20.561Z,16.38
2023-01-26T14:00:13.525Z,14.55
2023-01-26T14:02:59.947Z,16.92
2023-01-26T14:05:56.604Z,14.93
2023-01-26T14:08:49.826Z,17.45
2023-01-26T14:11:36.523Z,18.88
2023-01-26T14:14:28.280Z,11.00
2023-01-26T14:17:34.204Z,14.15
2023-01-26T14:20:39.523Z,10.43
2023-01-26T14:23:30.235Z,10.00
2023-01-26T14:26:32.332Z,15.20
2023-01-26T14:29:28.142Z,24.60
2023-01-26T14:32:17.296Z,21.80
2023-01-26T14:35:18.416Z,14.30
2023-01-26T14:38:18.055Z,20.33
2023-01-26T14:41:04.057Z,20.35
2023-01-26T14:43:56.580Z,22.90
2023-01-26T14:46:49.535Z,23.58
2023-01-26T14:49:53.493Z,14.50
2023-01-26T14:52:44.212Z,21.23
2023-01-26T14:55:35.227Z,27.98
2023-01-26T14:58:32.820Z,21.98
2023-01-26T15:01:24.939Z,21.77
2023-01-26T15:04:31.459Z,19.45
2023-01-26T15:07:32.347Z,10.38
2023-01-26T15:10:32.896Z,12.57
2023-01-26T15:13:30.680Z,11.25
2023-01-26T15:16:19.399Z,12.77
2023-01-26T15:19:09.031Z,10.55
2023-01-26T15:21:54.543Z,13.45
2023-01-26T15:24:40.281Z,12.10
2023-01-26T15:27:30.333Z,17.38
2023-01-26T15:30:17.970Z,14.60
2023-01-26T15:33:04.126Z,20.85
2023-01-26T15:35:58.674Z,17.63
2023-01-26T15:38:44.712Z,22.95
2023-01-26T15:41:30.935Z,13.32
2023-01-26T15:44:18.969Z,22.52
2023-01-26T15:47:04.772Z,18.90
2023-01-26T15:49:50.558Z,17.38
2023-01-26T15:52:36.394Z,21.30
2023-01-26T15:55:26.601Z,18.63
2023-01-26T15:58:12.179Z,18.83
2023-01-26T16:00:58.125Z,17.48
2023-01-26T16:03:43.584Z,18.42
2023-01-26T16:06:31.483Z,19.77
2023-01-26T16:09:16.842Z,21.20
2023-01-26T16:12:02.699Z,14.10
2023-01-26T16:14:48.027Z,15.85
2023-01-26T16:17:33.608Z,15.43
2023-01-26T16:20:19.599Z,15.70
2023-01-26T16:23:20.349Z,12.77
2023-01-26T16:26:08.538Z,16.67
2023-01-26T16:28:54.223Z,17.92
2023-01-26T16:31:41.904Z,20.48
2023-01-26T16:34:30.826Z,15.23
2023-01-26T16:37:22.874Z,16.15
2023-01-26T16:40:17.582Z,22.58
2023-01-26T16:43:04.227Z,17.23
2023-01-26T16:45:52.685Z,17.33
2023-01-26T16:48:40.337Z,10.88
2023-01-26T16:51:29.013Z,12.60
2023-01-26T16:54:14.550Z,16.63
2023-01-26T16:57:00.437Z,9.02
2023-01-26T16:59:46.587Z,17.20
2023-01-26T17:02:35.306Z,9.13
2023-01-26T17:05:22.055Z,15.50
2023-01-26T17:08:08.439Z,17.45
2023-01-26T17:11:01.933Z,20.55
2023-01-26T17:13:51.574Z,17.27
2023-01-26T17:16:37.553Z,14.73
2023-01-26T17:19:27.948Z,20.27
2023-01-26T17:22:13.359Z,18.80
2023-01-26T17:24:58.997Z,20.25
2023-01-26T17:27:46.472Z,14.63
2023-01-26T17:30:32.610Z,24.00
2023-01-26T17:33:18.132Z,17.77
2023-01-26T17:36:07.467Z,15.73
2023-01-26T17:38:56.643Z,15.63
2023-01-26T17:41:58.167Z,20.15
2023-01-26T17:44:44.300Z,25.90
2023-01-26T17:47:33.530Z,23.23
2023-01-26T17:50:19.090Z,21.52
2023-01-26T17:53:06.210Z,21.73
2023-01-26T17:55:52.646Z,12.88
2023-01-26T17:58:39.074Z,16.35
2023-01-26T18:01:27.040Z,23.65
2023-01-26T18:04:20.729Z,25.85
2023-01-26T18:07:24.460Z,21.92
2023-01-26T18:10:10.863Z,20.27
2023-01-26T18:12:59.316Z,19.27
2023-01-26T18:15:45.498Z,23.42
2023-01-26T18:18:31.174Z,17.65
2023-01-26T18:21:25.114Z,22.33
2023-01-26T18:24:10.659Z,19.05
2023-01-26T18:26:56.489Z,17.67
2023-01-26T18:29:44.405Z,17.85
2023-01-26T18:32:31.403Z,18.75
2023-01-26T18:35:19.925Z,20.30
2023-01-26T18:38:06.518Z,15.75
2023-01-26T18:40:52.287Z,14.98
2023-01-26T18:43:38.234Z,9.35
2023-01-26T18:46:36.552Z,18.35
2023-01-26T18:49:31.175Z,14.45
2023-01-26T18:52:23.109Z,10.60
2023-01-26T18:55:11.477Z,11.05
2023-01-26T18:57:57.525Z,11.88
2023-01-26T19:00:42.856Z,12.40
2023-01-26T19:03:34.436Z,15.07
2023-01-26T19:06:20.126Z,11.27
2023-01-26T19:09:08.472Z,18.27
2023-01-26T19:11:54.036Z,20.50
2023-01-26T19:14:39.901Z,14.90
2023-01-26T19:17:38.706Z,9.00
2023-01-26T19:20:25.339Z,12.05
2023-01-26T19:23:11.268Z,9.00
2023-01-26T19:25:57.078Z,9.18
2023-01-26T19:28:42.581Z,11.10
2023-01-26T19:31:29.150Z,10.73
2023-01-26T19:34:22.966Z,12.38
2023-01-26T19:37:20.152Z,10.30
2023-01-26T19:40:11.975Z,7.43
2023-01-26T19:42:57.725Z,7.78
2023-01-26T19:45:53.067Z,12.65
2023-01-26T19:48:39.571Z,6.00
2023-01-26T19:51:26.373Z,9.50
2023-01-26T19:54:13.781Z,7.55
2023-01-26T19:56:59.465Z,10.57
2023-01-26T19:59:45.315Z,13.02
2023-01-26T20:02:30.795Z,9.77
2023-01-26T20:05:16.503Z,7.55
2023-01-26T20:08:01.888Z,12.55
2023-01-26T20:10:50.089Z,9.23
2023-01-26T20:13:36.737Z,5.35
2023-01-26T20:16:23.220Z,13.40
2023-01-26T20:19:11.389Z,11.27
2023-01-26T20:21:56.893Z,10.07
2023-01-26T20:24:49.951Z,8.25
2023-01-26T20:27:35.912Z,6.68
2023-01-26T20:30:22.256Z,12.05
2023-01-26T20:33:08.520Z,6.78
2023-01-26T20:35:54.550Z,9.18
2023-01-26T20:38:40.420Z,7.85
2023-01-26T20:41:29.228Z,9.25
2023-01-26T20:44:15.941Z,8.77
2023-01-26T20:47:01.655Z,8.05
2023-01-26T20:49:47.506Z,4.65
2023-01-26T20:52:36.039Z,4.70
2023-01-26T20:55:21.770Z,8.77
2023-01-26T20:58:07.605Z,8.57
2023-01-26T21:00:53.541Z,10.10
2023-01-26T21:03:40.863Z,11.40
2023-01-26T21:06:28.363Z,8.82
2023-01-26T21:09:16.020Z,6.30
2023-01-26T21:12:03.687Z,10.15
2023-01-26T21:14:49.783Z,9.68
2023-01-26T21:17:35.403Z,11.43
2023-01-26T21:20:21.223Z,5.85
2023-01-26T21:23:16.368Z,9.07
2023-01-26T21:26:13.427Z,6.72
2023-01-26T21:29:18.092Z,8.68
2023-01-26T21:32:06.197Z,7.63
2023-01-26T21:34:52.439Z,7.20
2023-01-26T21:37:38.136Z,11.98
2023-01-26T21:40:23.735Z,9.25
2023-01-26T21:43:09.706Z,7.68
2023-01-26T21:45:57.005Z,4.88
2023-01-26T21:48:42.591Z,8.77
2023-01-26T21:51:52.280Z,8.73
2023-01-26T21:54:39.432Z,9.27
2023-01-26T21:57:44.295Z,9.02
2023-01-26T22:00:33.208Z,8.88
2023-01-26T22:03:19.159Z,9.85
2023-01-26T22:06:05.612Z,10.52
2023-01-26T22:08:50.963Z,11.38
2023-01-26T22:11:37.152Z,9.32
2023-01-26T22:14:26.092Z,8.75
2023-01-26T22:17:11.724Z,10.15
2023-01-26T22:19:57.160Z,11.90
2023-01-26T22:22:42.566Z,8.23
2023-01-26T22:25:28.056Z,8.88
2023-01-26T22:28:14.227Z,7.43
2023-01-26T22:31:03.324Z,9.02
2023-01-26T22:33:50.388Z,8.82
2023-01-26T22:36:36.299Z,10.20
2023-01-26T22:39:22.085Z,9.40
2023-01-26T22:42:07.584Z,8.18
2023-01-26T22:44:52.974Z,9.77
2023-01-26T22:47:41.044Z,8.43
2023-01-26T22:50:26.589Z,12.13
2023-01-26T22:53:13.754Z,8.63
2023-01-26T22:55:59.652Z,14.13
2023-01-26T22:58:57.685Z,11.50
2023-01-26T23:01:44.397Z,9.05
2023-01-26T23:04:30.139Z,11.75
2023-01-26T23:07:15.654Z,11.88
2023-01-26T23:10:01.412Z,14.30
2023-01-26T23:12:47.250Z,11.70
2023-01-26T23:15:32.886Z,14.02
2023-01-26T23:18:18.499Z,12.70
2023-01-26T23:21:05.320Z,11.40
2023-01-26T23:23:50.929Z,9.85
2023-01-26T23:26:36.116Z,9.55
2023-01-26T23:29:21.849Z,13.48
2023-01-26T23:32:07.332Z,12.52
2023-01-26T23:34:53.148Z,8.50
2023-01-26T23:37:38.885Z,11.77
2023-01-26T23:40:24.447Z,12.52
2023-01-26T23:43:16.522Z,12.35
2023-01-26T23:46:02.950Z,9.80
2023-01-26T23:48:48.363Z,16.17
2023-01-26T23:51:34.034Z,17.17
2023-01-26T23:54:19.485Z,16.42
2023-01-26T23:57:04.989Z,12.13
2023-01-26T23:59:50.490Z,20.88
